sensor_id;sensor_type;location;lat;lon;timestamp;P1;durP1;ratioP1;P2;durP2;ratioP2
11328;SDS011;5719;42.714;23.732;2023-05-07T00:01:35;6.22;;;5.20;;
11328;SDS011;5719;42.714;23.732;2023-05-07T00:04:02;8.77;;;4.80;;
11328;SDS011;5719;42.714;23.732;2023-05-07T00:06:31;6.75;;;4.60;;
11328;SDS011;5719;42.714;23.732;2023-05-07T00:08:58;11.25;;;6.63;;
11328;SDS011;5719;42.714;23.732;2023-05-07T00:11:26;18.17;;;7.72;;
11328;SDS011;5719;42.714;23.732;2023-05-07T00:13:53;13.90;;;8.07;;
11328;SDS011;5719;42.714;23.732;2023-05-07T00:16:20;14.20;;;7.45;;
11328;SDS011;5719;42.714;23.732;2023-05-07T00:18:47;12.00;;;6.78;;
11328;SDS011;5719;42.714;23.732;2023-05-07T00:21:14;11.52;;;6.43;;
11328;SDS011;5719;42.714;23.732;2023-05-07T00:23:42;11.30;;;6.00;;
11328;SDS011;5719;42.714;23.732;2023-05-07T00:26:09;7.95;;;5.53;;
11328;SDS011;5719;42.714;23.732;2023-05-07T00:28:36;14.02;;;6.03;;
11328;SDS011;5719;42.714;23.732;2023-05-07T00:31:03;9.70;;;5.97;;
11328;SDS011;5719;42.714;23.732;2023-05-07T00:33:29;9.70;;;5.82;;
11328;SDS011;5719;42.714;23.732;2023-05-07T00:35:56;10.98;;;5.85;;
11328;SDS011;5719;42.714;23.732;2023-05-07T00:38:23;10.63;;;6.30;;
11328;SDS011;5719;42.714;23.732;2023-05-07T00:40:51;13.10;;;6.60;;
11328;SDS011;5719;42.714;23.732;2023-05-07T00:43:18;8.60;;;5.97;;
11328;SDS011;5719;42.714;23.732;2023-05-07T00:45:45;9.73;;;5.85;;
11328;SDS011;5719;42.714;23.732;2023-05-07T00:48:12;9.02;;;6.20;;
11328;SDS011;5719;42.714;23.732;2023-05-07T00:50:40;15.48;;;6.80;;
11328;SDS011;5719;42.714;23.732;2023-05-07T00:53:07;10.43;;;6.13;;
11328;SDS011;5719;42.714;23.732;2023-05-07T00:55:34;8.38;;;6.25;;
11328;SDS011;5719;42.714;23.732;2023-05-07T00:58:03;8.23;;;5.70;;
11328;SDS011;5719;42.714;23.732;2023-05-07T01:00:30;8.52;;;5.95;;
11328;SDS011;5719;42.714;23.732;2023-05-07T01:02:57;10.73;;;5.93;;
11328;SDS011;5719;42.714;23.732;2023-05-07T01:05:24;7.68;;;5.82;;
11328;SDS011;5719;42.714;23.732;2023-05-07T01:07:54;7.63;;;5.65;;
11328;SDS011;5719;42.714;23.732;2023-05-07T01:10:23;8.50;;;5.05;;
11328;SDS011;5719;42.714;23.732;2023-05-07T01:12:50;10.18;;;5.25;;
11328;SDS011;5719;42.714;23.732;2023-05-07T01:15:19;7.95;;;5.80;;
11328;SDS011;5719;42.714;23.732;2023-05-07T01:17:46;6.25;;;5.00;;
11328;SDS011;5719;42.714;23.732;2023-05-07T01:20:13;6.10;;;5.32;;
11328;SDS011;5719;42.714;23.732;2023-05-07T01:22:42;8.63;;;5.47;;
11328;SDS011;5719;42.714;23.732;2023-05-07T01:25:09;7.93;;;5.35;;
11328;SDS011;5719;42.714;23.732;2023-05-07T01:27:36;8.18;;;5.32;;
11328;SDS011;5719;42.714;23.732;2023-05-07T01:30:03;5.47;;;4.97;;
11328;SDS011;5719;42.714;23.732;2023-05-07T01:32:32;8.18;;;5.15;;
11328;SDS011;5719;42.714;23.732;2023-05-07T01:35:02;9.45;;;5.97;;
11328;SDS011;5719;42.714;23.732;2023-05-07T01:37:31;8.35;;;6.47;;
11328;SDS011;5719;42.714;23.732;2023-05-07T01:40:00;9.18;;;5.93;;
11328;SDS011;5719;42.714;23.732;2023-05-07T01:42:27;9.88;;;5.43;;
11328;SDS011;5719;42.714;23.732;2023-05-07T01:44:55;8.05;;;5.50;;
11328;SDS011;5719;42.714;23.732;2023-05-07T01:47:22;6.20;;;5.57;;
11328;SDS011;5719;42.714;23.732;2023-05-07T01:49:50;13.82;;;7.70;;
11328;SDS011;5719;42.714;23.732;2023-05-07T01:52:18;18.67;;;9.25;;
11328;SDS011;5719;42.714;23.732;2023-05-07T01:54:45;9.27;;;6.57;;
11328;SDS011;5719;42.714;23.732;2023-05-07T01:57:13;10.05;;;7.13;;
11328;SDS011;5719;42.714;23.732;2023-05-07T01:59:40;11.35;;;7.40;;
11328;SDS011;5719;42.714;23.732;2023-05-07T02:02:07;9.70;;;6.68;;
11328;SDS011;5719;42.714;23.732;2023-05-07T02:04:34;7.65;;;6.13;;
11328;SDS011;5719;42.714;23.732;2023-05-07T02:07:01;13.13;;;5.93;;
11328;SDS011;5719;42.714;23.732;2023-05-07T02:09:28;7.38;;;5.45;;
11328;SDS011;5719;42.714;23.732;2023-05-07T02:11:55;13.00;;;5.65;;
11328;SDS011;5719;42.714;23.732;2023-05-07T02:14:23;9.05;;;5.78;;
11328;SDS011;5719;42.714;23.732;2023-05-07T02:16:51;9.55;;;6.22;;
11328;SDS011;5719;42.714;23.732;2023-05-07T02:19:18;9.05;;;6.18;;
11328;SDS011;5719;42.714;23.732;2023-05-07T02:21:46;12.40;;;7.40;;
11328;SDS011;5719;42.714;23.732;2023-05-07T02:24:13;16.00;;;8.45;;
11328;SDS011;5719;42.714;23.732;2023-05-07T02:26:40;17.83;;;9.38;;
11328;SDS011;5719;42.714;23.732;2023-05-07T02:29:07;17.90;;;10.48;;
11328;SDS011;5719;42.714;23.732;2023-05-07T02:31:36;15.02;;;9.07;;
11328;SDS011;5719;42.714;23.732;2023-05-07T02:34:02;13.77;;;9.00;;
11328;SDS011;5719;42.714;23.732;2023-05-07T02:36:29;11.68;;;8.30;;
11328;SDS011;5719;42.714;23.732;2023-05-07T02:38:56;16.60;;;9.30;;
11328;SDS011;5719;42.714;23.732;2023-05-07T02:41:23;15.80;;;10.43;;
11328;SDS011;5719;42.714;23.732;2023-05-07T02:43:50;15.07;;;8.82;;
11328;SDS011;5719;42.714;23.732;2023-05-07T02:46:17;10.52;;;7.78;;
11328;SDS011;5719;42.714;23.732;2023-05-07T02:48:45;15.25;;;7.93;;
11328;SDS011;5719;42.714;23.732;2023-05-07T02:51:12;9.80;;;6.15;;
11328;SDS011;5719;42.714;23.732;2023-05-07T02:53:39;10.05;;;6.45;;
11328;SDS011;5719;42.714;23.732;2023-05-07T02:56:06;14.23;;;7.57;;
11328;SDS011;5719;42.714;23.732;2023-05-07T02:58:33;11.05;;;7.07;;
11328;SDS011;5719;42.714;23.732;2023-05-07T03:01:00;8.68;;;6.57;;
11328;SDS011;5719;42.714;23.732;2023-05-07T03:03:26;12.27;;;7.78;;
11328;SDS011;5719;42.714;23.732;2023-05-07T03:05:55;13.07;;;7.68;;
11328;SDS011;5719;42.714;23.732;2023-05-07T03:08:21;11.18;;;8.00;;
11328;SDS011;5719;42.714;23.732;2023-05-07T03:10:48;15.32;;;7.82;;
11328;SDS011;5719;42.714;23.732;2023-05-07T03:13:15;9.68;;;7.40;;
11328;SDS011;5719;42.714;23.732;2023-05-07T03:15:42;10.90;;;7.70;;
11328;SDS011;5719;42.714;23.732;2023-05-07T03:18:09;12.13;;;7.60;;
11328;SDS011;5719;42.714;23.732;2023-05-07T03:20:36;12.30;;;7.72;;
11328;SDS011;5719;42.714;23.732;2023-05-07T03:23:05;12.40;;;7.88;;
11328;SDS011;5719;42.714;23.732;2023-05-07T03:25:32;16.05;;;8.23;;
11328;SDS011;5719;42.714;23.732;2023-05-07T03:27:58;19.20;;;13.55;;
11328;SDS011;5719;42.714;23.732;2023-05-07T03:30:25;23.58;;;14.95;;
11328;SDS011;5719;42.714;23.732;2023-05-07T03:32:52;14.88;;;10.35;;
11328;SDS011;5719;42.714;23.732;2023-05-07T03:35:19;12.85;;;8.43;;
11328;SDS011;5719;42.714;23.732;2023-05-07T03:37:46;12.20;;;8.32;;
11328;SDS011;5719;42.714;23.732;2023-05-07T03:40:14;11.32;;;7.70;;
11328;SDS011;5719;42.714;23.732;2023-05-07T03:42:41;14.90;;;7.90;;
11328;SDS011;5719;42.714;23.732;2023-05-07T03:45:08;10.60;;;7.45;;
11328;SDS011;5719;42.714;23.732;2023-05-07T03:47:35;12.70;;;8.32;;
11328;SDS011;5719;42.714;23.732;2023-05-07T03:50:02;13.35;;;8.80;;
11328;SDS011;5719;42.714;23.732;2023-05-07T03:52:29;13.75;;;9.45;;
11328;SDS011;5719;42.714;23.732;2023-05-07T03:54:56;17.00;;;10.07;;
11328;SDS011;5719;42.714;23.732;2023-05-07T03:57:25;11.27;;;8.30;;
11328;SDS011;5719;42.714;23.732;2023-05-07T03:59:51;11.38;;;8.10;;
11328;SDS011;5719;42.714;23.732;2023-05-07T04:02:18;11.88;;;8.27;;
11328;SDS011;5719;42.714;23.732;2023-05-07T04:04:45;12.32;;;7.60;;
11328;SDS011;5719;42.714;23.732;2023-05-07T04:07:14;13.15;;;8.20;;
11328;SDS011;5719;42.714;23.732;2023-05-07T04:09:41;16.67;;;8.50;;
11328;SDS011;5719;42.714;23.732;2023-05-07T04:12:08;16.52;;;7.50;;
11328;SDS011;5719;42.714;23.732;2023-05-07T04:14:36;11.23;;;8.32;;
11328;SDS011;5719;42.714;23.732;2023-05-07T04:17:03;12.52;;;7.75;;
11328;SDS011;5719;42.714;23.732;2023-05-07T04:19:32;11.30;;;7.38;;
11328;SDS011;5719;42.714;23.732;2023-05-07T04:21:59;11.93;;;7.90;;
11328;SDS011;5719;42.714;23.732;2023-05-07T04:24:27;9.93;;;7.80;;
11328;SDS011;5719;42.714;23.732;2023-05-07T04:26:53;11.93;;;8.35;;
11328;SDS011;5719;42.714;23.732;2023-05-07T04:29:20;10.70;;;8.80;;
11328;SDS011;5719;42.714;23.732;2023-05-07T04:31:48;15.27;;;8.32;;
11328;SDS011;5719;42.714;23.732;2023-05-07T04:34:15;11.07;;;8.88;;
11328;SDS011;5719;42.714;23.732;2023-05-07T04:36:42;12.60;;;8.40;;
11328;SDS011;5719;42.714;23.732;2023-05-07T04:39:09;11.10;;;8.82;;
11328;SDS011;5719;42.714;23.732;2023-05-07T04:41:37;16.90;;;9.23;;
11328;SDS011;5719;42.714;23.732;2023-05-07T04:44:04;11.57;;;9.43;;
11328;SDS011;5719;42.714;23.732;2023-05-07T04:46:31;12.20;;;8.43;;
11328;SDS011;5719;42.714;23.732;2023-05-07T04:49:00;10.18;;;8.48;;
11328;SDS011;5719;42.714;23.732;2023-05-07T04:51:27;20.25;;;8.90;;
11328;SDS011;5719;42.714;23.732;2023-05-07T04:53:54;13.57;;;8.95;;
11328;SDS011;5719;42.714;23.732;2023-05-07T04:56:21;13.27;;;8.43;;
11328;SDS011;5719;42.714;23.732;2023-05-07T04:58:47;13.82;;;9.27;;
11328;SDS011;5719;42.714;23.732;2023-05-07T05:01:14;10.80;;;8.57;;
11328;SDS011;5719;42.714;23.732;2023-05-07T05:03:41;12.48;;;8.30;;
11328;SDS011;5719;42.714;23.732;2023-05-07T05:06:10;11.35;;;8.15;;
11328;SDS011;5719;42.714;23.732;2023-05-07T05:08:37;12.05;;;8.40;;
11328;SDS011;5719;42.714;23.732;2023-05-07T05:11:04;9.43;;;7.68;;
11328;SDS011;5719;42.714;23.732;2023-05-07T05:13:31;10.27;;;8.40;;
11328;SDS011;5719;42.714;23.732;2023-05-07T05:15:58;10.05;;;8.35;;
11328;SDS011;5719;42.714;23.732;2023-05-07T05:18:25;12.52;;;8.27;;
11328;SDS011;5719;42.714;23.732;2023-05-07T05:20:52;12.68;;;8.10;;
11328;SDS011;5719;42.714;23.732;2023-05-07T05:23:21;16.67;;;8.50;;
11328;SDS011;5719;42.714;23.732;2023-05-07T05:25:50;12.63;;;8.57;;
11328;SDS011;5719;42.714;23.732;2023-05-07T05:28:22;14.32;;;9.25;;
11328;SDS011;5719;42.714;23.732;2023-05-07T05:30:48;13.05;;;9.50;;
11328;SDS011;5719;42.714;23.732;2023-05-07T05:33:15;12.57;;;8.75;;
11328;SDS011;5719;42.714;23.732;2023-05-07T05:35:42;16.50;;;8.77;;
11328;SDS011;5719;42.714;23.732;2023-05-07T05:38:10;11.68;;;9.27;;
11328;SDS011;5719;42.714;23.732;2023-05-07T05:40:38;13.50;;;9.45;;
11328;SDS011;5719;42.714;23.732;2023-05-07T05:43:05;13.02;;;8.55;;
11328;SDS011;5719;42.714;23.732;2023-05-07T05:45:32;12.25;;;9.00;;
11328;SDS011;5719;42.714;23.732;2023-05-07T05:47:59;12.02;;;9.43;;
11328;SDS011;5719;42.714;23.732;2023-05-07T05:50:26;17.30;;;9.23;;
11328;SDS011;5719;42.714;23.732;2023-05-07T05:52:53;12.68;;;8.73;;
11328;SDS011;5719;42.714;23.732;2023-05-07T05:55:21;10.70;;;8.02;;
11328;SDS011;5719;42.714;23.732;2023-05-07T05:57:49;14.60;;;6.90;;
11328;SDS011;5719;42.714;23.732;2023-05-07T06:00:17;8.60;;;6.70;;
11328;SDS011;5719;42.714;23.732;2023-05-07T06:02:44;7.35;;;4.97;;
11328;SDS011;5719;42.714;23.732;2023-05-07T06:05:11;7.97;;;5.63;;
11328;SDS011;5719;42.714;23.732;2023-05-07T06:07:37;10.00;;;5.43;;
11328;SDS011;5719;42.714;23.732;2023-05-07T06:10:05;8.63;;;5.25;;
11328;SDS011;5719;42.714;23.732;2023-05-07T06:12:33;9.40;;;5.38;;
11328;SDS011;5719;42.714;23.732;2023-05-07T06:15:01;8.48;;;5.30;;
11328;SDS011;5719;42.714;23.732;2023-05-07T06:17:28;6.38;;;4.80;;
11328;SDS011;5719;42.714;23.732;2023-05-07T06:19:55;8.82;;;5.13;;
11328;SDS011;5719;42.714;23.732;2023-05-07T06:22:22;7.07;;;5.18;;
11328;SDS011;5719;42.714;23.732;2023-05-07T06:24:49;7.32;;;5.30;;
11328;SDS011;5719;42.714;23.732;2023-05-07T06:27:16;9.82;;;4.63;;
11328;SDS011;5719;42.714;23.732;2023-05-07T06:29:43;6.18;;;4.50;;
11328;SDS011;5719;42.714;23.732;2023-05-07T06:32:12;6.72;;;4.65;;
11328;SDS011;5719;42.714;23.732;2023-05-07T06:34:39;7.95;;;5.00;;
11328;SDS011;5719;42.714;23.732;2023-05-07T06:37:07;8.93;;;4.45;;
11328;SDS011;5719;42.714;23.732;2023-05-07T06:39:34;9.45;;;4.72;;
11328;SDS011;5719;42.714;23.732;2023-05-07T06:42:01;7.97;;;4.07;;
11328;SDS011;5719;42.714;23.732;2023-05-07T06:44:29;11.60;;;4.88;;
11328;SDS011;5719;42.714;23.732;2023-05-07T06:46:56;9.23;;;4.78;;
11328;SDS011;5719;42.714;23.732;2023-05-07T06:49:24;6.88;;;4.28;;
11328;SDS011;5719;42.714;23.732;2023-05-07T06:51:51;6.90;;;4.93;;
11328;SDS011;5719;42.714;23.732;2023-05-07T06:54:18;10.93;;;5.03;;
11328;SDS011;5719;42.714;23.732;2023-05-07T06:56:45;6.43;;;4.70;;
11328;SDS011;5719;42.714;23.732;2023-05-07T06:59:12;5.15;;;4.60;;
11328;SDS011;5719;42.714;23.732;2023-05-07T07:01:39;12.15;;;4.72;;
11328;SDS011;5719;42.714;23.732;2023-05-07T07:04:08;9.80;;;4.05;;
11328;SDS011;5719;42.714;23.732;2023-05-07T07:06:36;13.10;;;4.70;;
11328;SDS011;5719;42.714;23.732;2023-05-07T07:09:03;6.35;;;3.72;;
11328;SDS011;5719;42.714;23.732;2023-05-07T07:11:30;6.15;;;3.90;;
11328;SDS011;5719;42.714;23.732;2023-05-07T07:13:57;6.07;;;3.65;;
11328;SDS011;5719;42.714;23.732;2023-05-07T07:16:24;7.35;;;4.28;;
11328;SDS011;5719;42.714;23.732;2023-05-07T07:18:52;4.65;;;3.92;;
11328;SDS011;5719;42.714;23.732;2023-05-07T07:21:19;5.13;;;4.00;;
11328;SDS011;5719;42.714;23.732;2023-05-07T07:23:47;7.63;;;3.55;;
11328;SDS011;5719;42.714;23.732;2023-05-07T07:26:17;4.30;;;3.70;;
11328;SDS011;5719;42.714;23.732;2023-05-07T07:28:44;8.52;;;3.47;;
11328;SDS011;5719;42.714;23.732;2023-05-07T07:31:11;3.45;;;3.15;;
11328;SDS011;5719;42.714;23.732;2023-05-07T07:33:38;6.85;;;3.40;;
11328;SDS011;5719;42.714;23.732;2023-05-07T07:36:05;9.23;;;3.33;;
11328;SDS011;5719;42.714;23.732;2023-05-07T07:38:33;6.45;;;3.50;;
11328;SDS011;5719;42.714;23.732;2023-05-07T07:41:02;6.18;;;3.60;;
11328;SDS011;5719;42.714;23.732;2023-05-07T07:43:29;3.47;;;3.15;;
11328;SDS011;5719;42.714;23.732;2023-05-07T07:45:56;5.85;;;3.50;;
11328;SDS011;5719;42.714;23.732;2023-05-07T07:48:23;5.13;;;3.25;;
11328;SDS011;5719;42.714;23.732;2023-05-07T07:50:50;4.15;;;3.15;;
11328;SDS011;5719;42.714;23.732;2023-05-07T07:53:18;4.38;;;3.17;;
11328;SDS011;5719;42.714;23.732;2023-05-07T07:55:45;6.43;;;3.30;;
11328;SDS011;5719;42.714;23.732;2023-05-07T07:58:13;5.85;;;3.10;;
11328;SDS011;5719;42.714;23.732;2023-05-07T08:00:40;4.95;;;3.25;;
11328;SDS011;5719;42.714;23.732;2023-05-07T08:03:08;3.97;;;2.90;;
11328;SDS011;5719;42.714;23.732;2023-05-07T08:05:36;3.58;;;3.00;;
11328;SDS011;5719;42.714;23.732;2023-05-07T08:08:03;7.90;;;3.20;;
11328;SDS011;5719;42.714;23.732;2023-05-07T08:10:31;3.50;;;3.20;;
11328;SDS011;5719;42.714;23.732;2023-05-07T08:13:00;6.43;;;3.20;;
11328;SDS011;5719;42.714;23.732;2023-05-07T08:15:29;6.18;;;2.90;;
11328;SDS011;5719;42.714;23.732;2023-05-07T08:17:57;3.60;;;3.15;;
11328;SDS011;5719;42.714;23.732;2023-05-07T08:20:25;4.85;;;2.90;;
11328;SDS011;5719;42.714;23.732;2023-05-07T08:22:52;4.82;;;2.83;;
11328;SDS011;5719;42.714;23.732;2023-05-07T08:25:19;5.68;;;2.95;;
11328;SDS011;5719;42.714;23.732;2023-05-07T08:27:46;3.58;;;3.10;;
11328;SDS011;5719;42.714;23.732;2023-05-07T08:30:13;4.80;;;3.17;;
11328;SDS011;5719;42.714;23.732;2023-05-07T08:32:43;4.10;;;2.80;;
11328;SDS011;5719;42.714;23.732;2023-05-07T08:35:10;4.97;;;3.05;;
11328;SDS011;5719;42.714;23.732;2023-05-07T08:37:36;4.82;;;2.88;;
11328;SDS011;5719;42.714;23.732;2023-05-07T08:40:04;5.35;;;3.03;;
11328;SDS011;5719;42.714;23.732;2023-05-07T08:42:35;4.32;;;3.17;;
11328;SDS011;5719;42.714;23.732;2023-05-07T08:45:03;3.67;;;3.10;;
11328;SDS011;5719;42.714;23.732;2023-05-07T08:47:40;6.53;;;2.97;;
11328;SDS011;5719;42.714;23.732;2023-05-07T08:50:12;11.18;;;3.10;;
11328;SDS011;5719;42.714;23.732;2023-05-07T08:52:40;3.35;;;3.00;;
11328;SDS011;5719;42.714;23.732;2023-05-07T08:55:07;4.38;;;3.22;;
11328;SDS011;5719;42.714;23.732;2023-05-07T08:57:36;7.03;;;3.15;;
11328;SDS011;5719;42.714;23.732;2023-05-07T09:00:03;3.15;;;2.50;;
11328;SDS011;5719;42.714;23.732;2023-05-07T09:02:32;5.13;;;2.65;;
11328;SDS011;5719;42.714;23.732;2023-05-07T09:05:01;3.38;;;2.40;;
11328;SDS011;5719;42.714;23.732;2023-05-07T09:07:28;2.55;;;1.85;;
11328;SDS011;5719;42.714;23.732;2023-05-07T09:09:56;5.13;;;1.85;;
11328;SDS011;5719;42.714;23.732;2023-05-07T09:12:24;2.88;;;1.77;;
11328;SDS011;5719;42.714;23.732;2023-05-07T09:14:51;3.17;;;1.88;;
11328;SDS011;5719;42.714;23.732;2023-05-07T09:17:18;5.82;;;2.03;;
11328;SDS011;5719;42.714;23.732;2023-05-07T09:19:45;2.40;;;2.10;;
11328;SDS011;5719;42.714;23.732;2023-05-07T09:22:13;2.88;;;2.22;;
11328;SDS011;5719;42.714;23.732;2023-05-07T09:24:40;3.90;;;2.17;;
11328;SDS011;5719;42.714;23.732;2023-05-07T09:27:07;3.92;;;2.13;;
11328;SDS011;5719;42.714;23.732;2023-05-07T09:29:38;2.83;;;1.90;;
11328;SDS011;5719;42.714;23.732;2023-05-07T09:32:05;8.88;;;2.33;;
11328;SDS011;5719;42.714;23.732;2023-05-07T09:34:33;2.75;;;2.08;;
11328;SDS011;5719;42.714;23.732;2023-05-07T09:37:00;2.75;;;2.00;;
11328;SDS011;5719;42.714;23.732;2023-05-07T09:39:29;3.95;;;1.38;;
11328;SDS011;5719;42.714;23.732;2023-05-07T09:42:05;2.38;;;1.50;;
11328;SDS011;5719;42.714;23.732;2023-05-07T09:44:32;4.68;;;1.55;;
11328;SDS011;5719;42.714;23.732;2023-05-07T09:47:00;1.30;;;1.20;;
11328;SDS011;5719;42.714;23.732;2023-05-07T09:49:30;2.67;;;1.42;;
11328;SDS011;5719;42.714;23.732;2023-05-07T09:52:01;1.60;;;1.38;;
11328;SDS011;5719;42.714;23.732;2023-05-07T09:54:30;5.97;;;1.30;;
11328;SDS011;5719;42.714;23.732;2023-05-07T09:56:58;4.15;;;1.42;;
11328;SDS011;5719;42.714;23.732;2023-05-07T09:59:27;3.28;;;1.38;;
11328;SDS011;5719;42.714;23.732;2023-05-07T10:01:56;1.50;;;1.40;;
11328;SDS011;5719;42.714;23.732;2023-05-07T10:04:24;1.10;;;1.00;;
11328;SDS011;5719;42.714;23.732;2023-05-07T10:06:52;4.50;;;1.40;;
11328;SDS011;5719;42.714;23.732;2023-05-07T10:09:20;6.10;;;1.70;;
11328;SDS011;5719;42.714;23.732;2023-05-07T10:11:49;2.75;;;1.52;;
11328;SDS011;5719;42.714;23.732;2023-05-07T10:14:16;3.15;;;1.27;;
11328;SDS011;5719;42.714;23.732;2023-05-07T10:16:44;1.50;;;1.40;;
11328;SDS011;5719;42.714;23.732;2023-05-07T10:19:13;3.28;;;1.33;;
11328;SDS011;5719;42.714;23.732;2023-05-07T10:21:47;13.20;;;2.38;;
11328;SDS011;5719;42.714;23.732;2023-05-07T10:24:21;5.55;;;1.50;;
11328;SDS011;5719;42.714;23.732;2023-05-07T10:26:53;2.72;;;1.70;;
11328;SDS011;5719;42.714;23.732;2023-05-07T10:29:25;3.50;;;1.40;;
11328;SDS011;5719;42.714;23.732;2023-05-07T10:32:09;1.63;;;1.30;;
11328;SDS011;5719;42.714;23.732;2023-05-07T10:34:47;1.58;;;1.35;;
11328;SDS011;5719;42.714;23.732;2023-05-07T10:37:17;3.10;;;1.40;;
11328;SDS011;5719;42.714;23.732;2023-05-07T10:39:44;5.53;;;1.38;;
11328;SDS011;5719;42.714;23.732;2023-05-07T10:42:13;3.95;;;1.60;;
11328;SDS011;5719;42.714;23.732;2023-05-07T10:44:41;4.97;;;1.90;;
11328;SDS011;5719;42.714;23.732;2023-05-07T10:47:09;1.52;;;1.42;;
11328;SDS011;5719;42.714;23.732;2023-05-07T10:49:37;3.95;;;1.60;;
11328;SDS011;5719;42.714;23.732;2023-05-07T10:52:36;2.15;;;1.70;;
11328;SDS011;5719;42.714;23.732;2023-05-07T10:55:19;3.63;;;1.60;;
11328;SDS011;5719;42.714;23.732;2023-05-07T10:57:51;4.10;;;1.70;;
11328;SDS011;5719;42.714;23.732;2023-05-07T11:03:07;3.20;;;1.60;;
11328;SDS011;5719;42.714;23.732;2023-05-07T11:05:35;1.85;;;1.60;;
11328;SDS011;5719;42.714;23.732;2023-05-07T11:08:03;3.08;;;1.50;;
11328;SDS011;5719;42.714;23.732;2023-05-07T11:10:49;2.83;;;1.55;;
11328;SDS011;5719;42.714;23.732;2023-05-07T11:16:17;2.00;;;1.70;;
11328;SDS011;5719;42.714;23.732;2023-05-07T11:18:48;1.52;;;1.42;;
11328;SDS011;5719;42.714;23.732;2023-05-07T11:23:58;1.88;;;1.60;;
11328;SDS011;5719;42.714;23.732;2023-05-07T11:26:27;3.83;;;1.60;;
11328;SDS011;5719;42.714;23.732;2023-05-07T11:28:56;1.60;;;1.50;;
11328;SDS011;5719;42.714;23.732;2023-05-07T11:31:27;6.07;;;1.50;;
11328;SDS011;5719;42.714;23.732;2023-05-07T11:33:55;1.85;;;1.60;;
11328;SDS011;5719;42.714;23.732;2023-05-07T11:36:23;5.38;;;1.92;;
11328;SDS011;5719;42.714;23.732;2023-05-07T11:38:51;2.35;;;1.60;;
11328;SDS011;5719;42.714;23.732;2023-05-07T11:41:18;3.40;;;1.75;;
11328;SDS011;5719;42.714;23.732;2023-05-07T11:43:58;3.35;;;1.50;;
11328;SDS011;5719;42.714;23.732;2023-05-07T11:46:26;2.13;;;1.80;;
11328;SDS011;5719;42.714;23.732;2023-05-07T11:48:54;4.97;;;2.55;;
11328;SDS011;5719;42.714;23.732;2023-05-07T11:51:23;2.78;;;1.90;;
11328;SDS011;5719;42.714;23.732;2023-05-07T11:53:52;2.80;;;2.00;;
11328;SDS011;5719;42.714;23.732;2023-05-07T11:56:19;2.42;;;1.90;;
11328;SDS011;5719;42.714;23.732;2023-05-07T11:58:47;2.50;;;1.73;;
11328;SDS011;5719;42.714;23.732;2023-05-07T12:01:18;2.65;;;1.63;;
11328;SDS011;5719;42.714;23.732;2023-05-07T12:03:45;4.10;;;1.80;;
11328;SDS011;5719;42.714;23.732;2023-05-07T12:06:13;3.00;;;1.70;;
11328;SDS011;5719;42.714;23.732;2023-05-07T12:08:42;4.25;;;1.60;;
11328;SDS011;5719;42.714;23.732;2023-05-07T12:11:15;2.55;;;1.75;;
11328;SDS011;5719;42.714;23.732;2023-05-07T12:13:43;4.43;;;2.00;;
11328;SDS011;5719;42.714;23.732;2023-05-07T12:16:11;3.45;;;2.00;;
11328;SDS011;5719;42.714;23.732;2023-05-07T12:18:40;1.83;;;1.70;;
11328;SDS011;5719;42.714;23.732;2023-05-07T12:21:07;3.88;;;2.00;;
11328;SDS011;5719;42.714;23.732;2023-05-07T12:23:36;4.60;;;2.10;;
11328;SDS011;5719;42.714;23.732;2023-05-07T12:26:03;5.25;;;1.90;;
11328;SDS011;5719;42.714;23.732;2023-05-07T12:28:30;2.25;;;2.05;;
11328;SDS011;5719;42.714;23.732;2023-05-07T12:31:03;1.98;;;1.77;;
11328;SDS011;5719;42.714;23.732;2023-05-07T12:33:30;4.65;;;2.28;;
11328;SDS011;5719;42.714;23.732;2023-05-07T12:36:02;4.15;;;1.95;;
11328;SDS011;5719;42.714;23.732;2023-05-07T12:38:35;2.38;;;2.10;;
11328;SDS011;5719;42.714;23.732;2023-05-07T12:54:32;2.05;;;1.95;;
11328;SDS011;5719;42.714;23.732;2023-05-07T12:57:00;6.95;;;2.20;;
11328;SDS011;5719;42.714;23.732;2023-05-07T12:59:32;7.35;;;2.30;;
11328;SDS011;5719;42.714;23.732;2023-05-07T13:02:00;2.67;;;2.47;;
11328;SDS011;5719;42.714;23.732;2023-05-07T13:04:27;3.97;;;2.00;;
11328;SDS011;5719;42.714;23.732;2023-05-07T13:06:54;4.75;;;2.03;;
11328;SDS011;5719;42.714;23.732;2023-05-07T13:09:21;4.70;;;2.17;;
11328;SDS011;5719;42.714;23.732;2023-05-07T13:11:50;6.07;;;2.25;;
11328;SDS011;5719;42.714;23.732;2023-05-07T13:14:17;10.00;;;2.70;;
11328;SDS011;5719;42.714;23.732;2023-05-07T13:16:46;2.85;;;2.60;;
11328;SDS011;5719;42.714;23.732;2023-05-07T13:19:13;3.33;;;2.08;;
11328;SDS011;5719;42.714;23.732;2023-05-07T13:21:40;4.18;;;2.50;;
11328;SDS011;5719;42.714;23.732;2023-05-07T13:27:30;7.30;;;2.60;;
11328;SDS011;5719;42.714;23.732;2023-05-07T13:29:57;4.13;;;2.60;;
11328;SDS011;5719;42.714;23.732;2023-05-07T13:32:24;3.33;;;2.60;;
11328;SDS011;5719;42.714;23.732;2023-05-07T13:34:51;3.08;;;2.25;;
11328;SDS011;5719;42.714;23.732;2023-05-07T13:37:20;3.00;;;2.28;;
11328;SDS011;5719;42.714;23.732;2023-05-07T13:39:48;2.72;;;2.20;;
11328;SDS011;5719;42.714;23.732;2023-05-07T13:42:15;4.60;;;2.28;;
11328;SDS011;5719;42.714;23.732;2023-05-07T13:44:44;2.45;;;2.25;;
11328;SDS011;5719;42.714;23.732;2023-05-07T13:47:11;4.13;;;2.38;;
11328;SDS011;5719;42.714;23.732;2023-05-07T13:49:39;2.58;;;1.90;;
11328;SDS011;5719;42.714;23.732;2023-05-07T13:52:06;2.60;;;2.45;;
11328;SDS011;5719;42.714;23.732;2023-05-07T13:54:33;3.45;;;2.20;;
11328;SDS011;5719;42.714;23.732;2023-05-07T14:13:46;4.82;;;2.53;;
11328;SDS011;5719;42.714;23.732;2023-05-07T14:39:47;2.10;;;1.90;;
11328;SDS011;5719;42.714;23.732;2023-05-07T14:42:14;1.73;;;1.63;;
11328;SDS011;5719;42.714;23.732;2023-05-07T14:44:41;3.65;;;1.95;;
11328;SDS011;5719;42.714;23.732;2023-05-07T14:47:08;5.68;;;2.28;;
11328;SDS011;5719;42.714;23.732;2023-05-07T14:49:35;2.55;;;2.00;;
11328;SDS011;5719;42.714;23.732;2023-05-07T14:52:02;2.00;;;1.80;;
11328;SDS011;5719;42.714;23.732;2023-05-07T14:54:33;1.90;;;1.80;;
11328;SDS011;5719;42.714;23.732;2023-05-07T14:57:01;2.63;;;1.63;;
11328;SDS011;5719;42.714;23.732;2023-05-07T14:59:28;2.00;;;1.90;;
11328;SDS011;5719;42.714;23.732;2023-05-07T15:01:55;4.05;;;2.10;;
11328;SDS011;5719;42.714;23.732;2023-05-07T15:04:23;2.53;;;1.80;;
11328;SDS011;5719;42.714;23.732;2023-05-07T15:06:50;5.82;;;2.13;;
11328;SDS011;5719;42.714;23.732;2023-05-07T15:09:17;3.15;;;2.00;;
11328;SDS011;5719;42.714;23.732;2023-05-07T15:11:44;3.05;;;2.38;;
11328;SDS011;5719;42.714;23.732;2023-05-07T15:14:12;3.22;;;2.10;;
11328;SDS011;5719;42.714;23.732;2023-05-07T15:16:39;3.13;;;1.77;;
11328;SDS011;5719;42.714;23.732;2023-05-07T15:19:06;1.88;;;1.70;;
11328;SDS011;5719;42.714;23.732;2023-05-07T15:21:33;3.28;;;2.28;;
11328;SDS011;5719;42.714;23.732;2023-05-07T15:24:01;2.58;;;1.92;;
11328;SDS011;5719;42.714;23.732;2023-05-07T15:26:28;3.17;;;2.00;;
11328;SDS011;5719;42.714;23.732;2023-05-07T15:28:55;2.95;;;2.17;;
11328;SDS011;5719;42.714;23.732;2023-05-07T15:31:24;6.60;;;2.38;;
11328;SDS011;5719;42.714;23.732;2023-05-07T15:33:51;2.67;;;1.90;;
11328;SDS011;5719;42.714;23.732;2023-05-07T15:36:18;3.40;;;1.70;;
11328;SDS011;5719;42.714;23.732;2023-05-07T15:38:46;2.50;;;1.90;;
11328;SDS011;5719;42.714;23.732;2023-05-07T15:41:13;2.80;;;2.20;;
11328;SDS011;5719;42.714;23.732;2023-05-07T15:43:43;3.83;;;2.00;;
11328;SDS011;5719;42.714;23.732;2023-05-07T15:46:11;3.50;;;1.92;;
11328;SDS011;5719;42.714;23.732;2023-05-07T15:48:39;5.53;;;1.85;;
11328;SDS011;5719;42.714;23.732;2023-05-07T15:51:06;4.57;;;1.88;;
11328;SDS011;5719;42.714;23.732;2023-05-07T15:53:34;3.03;;;2.00;;